createdAt,value
2017-05-28T00:00:22.443Z,95.45
2017-05-28T00:00:57.070Z,95.45
2017-05-28T00:01:10.095Z,95.45
2017-05-28T00:01:23.536Z,95.45
2017-05-28T00:01:57.493Z,95.84
2017-05-28T00:02:10.552Z,95.45
2017-05-28T00:02:34.029Z,95.17
2017-05-28T00:02:47.722Z,95.65
2017-05-28T00:03:04.174Z,96.13
2017-05-28T00:03:53.912Z,95.75
2017-05-28T00:04:17.463Z,95.65
2017-05-28T00:04:30.389Z,95.55
2017-05-28T00:05:06.702Z,95.84
2017-05-28T00:05:20.135Z,95.84
2017-05-28T00:05:33.964Z,96.22
2017-05-28T00:05:47.382Z,96.22
2017-05-28T00:06:00.800Z,96.13
2017-05-28T00:06:15.517Z,96.13
2017-05-28T00:06:30.279Z,95.75
2017-05-28T00:06:44.521Z,95.84
2017-05-28T00:06:59.202Z,95.84
2017-05-28T00:07:12.019Z,95.84
2017-05-28T00:07:24.499Z,95.94
2017-05-28T00:07:39.161Z,96.13
2017-05-28T00:07:52.196Z,96.03
2017-05-28T00:08:05.203Z,95.84
2017-05-28T00:08:19.414Z,95.94
2017-05-28T00:08:34.424Z,96.22
2017-05-28T00:08:54.880Z,95.84
2017-05-28T00:09:09.151Z,95.84
2017-05-28T00:09:22.077Z,95.84
2017-05-28T00:09:35.503Z,95.94
2017-05-28T00:09:48.482Z,95.84
2017-05-28T00:10:05.465Z,96.22
2017-05-28T00:10:18.979Z,95.84
2017-05-28T00:10:31.478Z,96.22
2017-05-28T00:10:47.281Z,96.13
2017-05-28T00:11:37.117Z,96.22
2017-05-28T00:12:08.399Z,96.61
2017-05-28T00:12:31.379Z,96.51
2017-05-28T00:13:27.041Z,96.8
2017-05-28T00:14:11.607Z,96.8
2017-05-28T00:14:25.063Z,96.42
2017-05-28T00:16:05.632Z,96.99
2017-05-28T00:16:25.347Z,96.9
2017-05-28T00:17:09.968Z,96.8
2017-05-28T00:17:42.065Z,97.09
2017-05-28T00:17:55.209Z,96.99
2017-05-28T00:18:33.347Z,96.9
2017-05-28T00:18:53.429Z,96.8
2017-05-28T00:19:42.648Z,96.8
2017-05-28T00:20:08.697Z,96.99
2017-05-28T00:20:28.068Z,96.9
2017-05-28T00:20:47.492Z,96.99
2017-05-28T00:21:01.684Z,96.99
2017-05-28T00:21:15.210Z,96.99
2017-05-28T00:21:29.062Z,96.99
2017-05-28T00:22:36.877Z,97.09
2017-05-28T00:22:49.873Z,97.38
2017-05-28T00:23:03.382Z,97.19
2017-05-28T00:23:18.394Z,97.19
2017-05-28T00:24:37.132Z,97.47
2017-05-28T00:24:50.689Z,97.19
2017-05-28T00:25:35.290Z,97.38
2017-05-28T00:25:59.199Z,97.38
2017-05-28T00:26:23.140Z,97.28
2017-05-28T00:26:59.813Z,97.28
2017-05-28T00:27:47.085Z,97.09
2017-05-28T00:29:17.303Z,97.19
2017-05-28T00:30:11.403Z,97.28
2017-05-28T00:31:33.393Z,97.09
2017-05-28T00:32:42.014Z,97.19
2017-05-28T00:32:57.145Z,97.47
2017-05-28T00:34:31.151Z,97.47
2017-05-28T00:34:45.446Z,97.19
2017-05-28T00:35:02.143Z,97.38
2017-05-28T00:35:21.559Z,97.38
2017-05-28T00:36:06.357Z,97.38
2017-05-28T00:37:41.889Z,97.38
2017-05-28T00:38:22.797Z,97.47
2017-05-28T00:38:37.972Z,97.28
2017-05-28T00:38:52.225Z,97.57
2017-05-28T00:39:07.036Z,97.76
2017-05-28T00:54:26.701Z,97.96
2017-05-28T00:55:24.172Z,97.76
2017-05-28T00:56:52.804Z,98.05
2017-05-28T00:57:12.991Z,98.14
2017-05-28T00:58:29.701Z,97.76
2017-05-28T00:58:43.120Z,98.14
2017-05-28T00:59:22.269Z,98.14
2017-05-28T01:00:02.108Z,98.24
2017-05-28T01:00:16.250Z,97.86
2017-05-28T01:00:29.087Z,98.05
2017-05-28T01:00:47.623Z,97.96
2017-05-28T01:01:24.959Z,98.14
2017-05-28T01:01:47.954Z,98.14
2017-05-28T01:02:32.027Z,98.14
2017-05-28T01:02:52.478Z,97.86
2017-05-28T01:03:15.133Z,98.14
2017-05-28T01:03:28.779Z,97.76
2017-05-28T01:03:42.511Z,97.96
2017-05-28T01:04:59.351Z,97.76
2017-05-28T01:06:14.538Z,98.05
2017-05-28T01:06:32.290Z,98.14
2017-05-28T01:06:44.659Z,98.14
2017-05-28T01:07:56.150Z,98.05
2017-05-28T01:08:15.061Z,98.05
2017-05-28T01:10:20.088Z,97.67
2017-05-28T01:11:42.497Z,98.05
2017-05-28T01:11:57.927Z,98.14
2017-05-28T01:12:43.815Z,97.96
2017-05-28T01:12:57.245Z,98.14
2017-05-28T01:13:10.676Z,98.14
2017-05-28T01:13:42.250Z,98.14
2017-05-28T01:14:03.775Z,97.96
2017-05-28T01:17:24.165Z,97.62
2017-05-28T01:32:46.642Z,97.38
2017-05-28T01:33:34.199Z,97.38
2017-05-28T01:34:08.054Z,97.28
2017-05-28T01:34:20.481Z,97.38
2017-05-28T01:35:18.516Z,97.57
2017-05-28T01:36:57.345Z,97.47
2017-05-28T01:37:55.140Z,97.71
2017-05-28T01:39:06.996Z,97.71
2017-05-28T01:40:16.796Z,97.38
2017-05-28T01:41:01.368Z,97.14
2017-05-28T01:41:48.676Z,97.24
2017-05-28T01:42:02.027Z,97.14
2017-05-28T01:43:25.543Z,96.94
2017-05-28T01:44:10.879Z,97.24
2017-05-28T01:44:56.719Z,96.75
2017-05-28T01:46:07.177Z,96.94
2017-05-28T01:46:20.970Z,96.94
2017-05-28T01:46:41.951Z,96.66
2017-05-28T01:47:26.014Z,96.66
2017-05-28T01:48:11.552Z,96.66
2017-05-28T01:48:30.671Z,96.85
2017-05-28T01:50:01.993Z,96.75
2017-05-28T01:50:16.914Z,96.47
2017-05-28T01:51:15.276Z,96.66
2017-05-28T01:52:12.899Z,96.37
2017-05-28T01:52:31.365Z,96.27
2017-05-28T02:09:56.122Z,96.03
2017-05-28T02:10:56.970Z,95.94
2017-05-28T02:11:50.772Z,95.79
2017-05-28T02:12:43.991Z,96.03
2017-05-28T02:16:03.666Z,95.89
2017-05-28T02:16:28.143Z,95.79
2017-05-28T02:16:46.980Z,95.79
2017-05-28T02:18:07.493Z,95.79
2017-05-28T02:18:53.777Z,95.79
2017-05-28T02:19:07.982Z,95.7
2017-05-28T02:19:33.040Z,95.89
2017-05-28T02:22:17.328Z,95.7
2017-05-28T02:23:52.252Z,95.79
2017-05-28T02:24:38.793Z,95.79
2017-05-28T02:25:23.319Z,95.79
2017-05-28T02:26:38.999Z,95.21
2017-05-28T02:28:31.106Z,95.4
2017-05-28T02:34:23.498Z,94.73
2017-05-28T02:34:43.192Z,94.93
2017-05-28T02:34:56.594Z,94.73
2017-05-28T02:37:07.481Z,94.83
2017-05-28T02:37:42.379Z,94.93
2017-05-28T02:39:36.215Z,94.83
2017-05-28T02:43:40.487Z,94.83
2017-05-28T02:44:01.307Z,94.93
2017-05-28T02:48:30.145Z,94.64
2017-05-28T02:49:58.698Z,94.35
2017-05-28T02:51:09.704Z,94.16
2017-05-28T02:51:30.235Z,94.35
2017-05-28T02:53:15.127Z,94.45
2017-05-28T02:53:59.635Z,94.64
2017-05-28T02:55:15.415Z,94.35
2017-05-28T02:58:49.746Z,94.06
2017-05-28T03:00:08.277Z,94.16
2017-05-28T03:00:59.602Z,93.96
2017-05-28T03:02:15.281Z,94.26
2017-05-28T03:03:09.115Z,94.64
2017-05-28T03:04:29.694Z,94.45
2017-05-28T03:05:05.315Z,94.49
2017-05-28T03:06:30.835Z,94.26
2017-05-28T03:07:47.240Z,94.35
2017-05-28T03:09:22.590Z,94.26
2017-05-28T03:10:43.352Z,94.88
2017-05-28T03:11:09.237Z,94.64
2017-05-28T03:11:59.067Z,94.64
2017-05-28T03:12:16.222Z,94.45
2017-05-28T03:12:29.568Z,94.45
2017-05-28T03:29:32.034Z,94.26
2017-05-28T03:30:05.289Z,93.77
2017-05-28T03:30:18.212Z,94.16
2017-05-28T03:30:37.473Z,94.06
2017-05-28T03:31:23.292Z,93.87
2017-05-28T03:31:47.224Z,94.06
2017-05-28T03:32:51.155Z,93.87
2017-05-28T03:33:46.630Z,93.96
2017-05-28T03:34:04.565Z,94.06
2017-05-28T03:34:58.590Z,93.77
2017-05-28T03:35:16.493Z,94.06
2017-05-28T03:35:42.266Z,94.06
2017-05-28T03:36:30.880Z,93.87
2017-05-28T03:38:12.331Z,93.87
2017-05-28T03:39:21.505Z,93.68
2017-05-28T03:39:45.005Z,93.68
2017-05-28T03:40:10.621Z,94.16
2017-05-28T03:41:26.317Z,93.96
2017-05-28T03:41:42.924Z,93.77
2017-05-28T03:42:13.963Z,93.87
2017-05-28T03:42:28.054Z,93.77
2017-05-28T03:42:41.434Z,94.26
2017-05-28T03:42:55.901Z,93.96
2017-05-28T03:43:09.396Z,93.96
2017-05-28T03:43:21.765Z,94.16
2017-05-28T03:43:43.208Z,93.96
2017-05-28T03:44:28.803Z,94.06
2017-05-28T03:44:57.195Z,93.96
2017-05-28T03:45:10.634Z,93.87
2017-05-28T03:46:16.921Z,93.68
2017-05-28T03:46:31.976Z,93.96
2017-05-28T03:47:17.250Z,93.77
2017-05-28T03:47:42.350Z,93.58
2017-05-28T03:48:00.901Z,93.58
2017-05-28T03:48:15.190Z,93.58
2017-05-28T03:48:31.765Z,93.77
2017-05-28T03:48:54.971Z,93.87
2017-05-28T03:49:14.313Z,93.96
2017-05-28T03:49:27.749Z,93.77
2017-05-28T03:49:43.740Z,93.96
2017-05-28T03:49:56.652Z,93.58
2017-05-28T03:50:33.273Z,93.58
2017-05-28T03:50:46.705Z,93.77
2017-05-28T03:50:59.774Z,93.77
2017-05-28T03:51:13.125Z,93.87
2017-05-28T03:51:26.553Z,93.77
2017-05-28T03:51:39.547Z,93.96
2017-05-28T03:51:53.286Z,93.77
2017-05-28T03:52:06.125Z,93.68
2017-05-28T03:52:19.636Z,94.16
2017-05-28T03:52:33.806Z,93.96
2017-05-28T03:52:46.683Z,94.01
2017-05-28T03:53:00.112Z,93.58
2017-05-28T03:53:12.907Z,93.87
2017-05-28T03:53:29.353Z,93.96
2017-05-28T03:53:45.569Z,93.87
2017-05-28T03:53:58.036Z,93.87
2017-05-28T03:54:10.979Z,93.77
2017-05-28T03:54:23.788Z,93.87
2017-05-28T03:54:38.135Z,93.87
2017-05-28T03:54:51.059Z,93.58
2017-05-28T03:55:03.906Z,93.96
2017-05-28T03:55:21.107Z,93.87
2017-05-28T03:55:35.633Z,93.77
2017-05-28T03:55:53.627Z,93.96
2017-05-28T03:56:05.937Z,93.58
2017-05-28T03:56:19.280Z,93.58
2017-05-28T03:56:32.792Z,93.87
2017-05-28T03:56:45.714Z,93.87
2017-05-28T03:56:59.137Z,93.87
2017-05-28T03:57:12.617Z,93.87
2017-05-28T03:57:25.505Z,93.77
2017-05-28T03:57:38.938Z,93.77
2017-05-28T03:57:51.834Z,93.87
2017-05-28T03:58:04.290Z,93.87
2017-05-28T03:58:17.832Z,93.87
2017-05-28T03:58:30.699Z,93.87
2017-05-28T03:58:44.286Z,93.96
2017-05-28T03:58:57.752Z,93.96
2017-05-28T03:59:10.684Z,93.68
2017-05-28T03:59:24.328Z,93.96
2017-05-28T03:59:37.716Z,93.87
2017-05-28T03:59:50.167Z,94.06
2017-05-28T04:00:03.611Z,93.87
2017-05-28T04:00:18.257Z,94.06
2017-05-28T04:00:31.461Z,93.68
2017-05-28T04:00:44.876Z,93.87
2017-05-28T04:00:57.801Z,93.87
2017-05-28T04:01:10.226Z,93.87
2017-05-28T04:01:33.842Z,93.87
2017-05-28T04:01:48.602Z,93.96
2017-05-28T04:02:01.530Z,93.77
2017-05-28T04:02:15.178Z,93.96
2017-05-28T04:02:28.093Z,93.77
2017-05-28T04:02:40.434Z,94.06
2017-05-28T04:02:53.960Z,94.06
2017-05-28T04:03:06.875Z,93.87
2017-05-28T04:03:21.424Z,94.06
2017-05-28T04:03:35.466Z,93.87
2017-05-28T04:03:48.380Z,93.96
2017-05-28T04:04:00.752Z,93.96
2017-05-28T04:04:13.605Z,93.77
2017-05-28T04:04:26.989Z,93.96
2017-05-28T04:04:39.951Z,93.77
2017-05-28T04:04:53.433Z,93.87
2017-05-28T04:05:06.404Z,93.77
2017-05-28T04:05:19.222Z,93.77
2017-05-28T04:05:32.163Z,93.96
2017-05-28T04:05:45.517Z,93.77
2017-05-28T04:05:58.938Z,93.77
2017-05-28T04:06:11.744Z,94.06
2017-05-28T04:06:24.137Z,94.16
2017-05-28T04:06:37.524Z,93.96
2017-05-28T04:06:50.411Z,93.87
2017-05-28T04:07:03.838Z,93.77
2017-05-28T04:07:15.937Z,93.96
2017-05-28T04:07:29.355Z,93.77
2017-05-28T04:07:42.238Z,94.06
2017-05-28T04:07:55.598Z,94.06
2017-05-28T04:08:08.497Z,94.06
2017-05-28T04:08:21.631Z,94.26
2017-05-28T04:08:34.075Z,94.26
2017-05-28T04:08:47.412Z,93.87
2017-05-28T04:09:00.277Z,93.96
2017-05-28T04:09:13.724Z,93.77
2017-05-28T04:09:27.139Z,93.87
2017-05-28T04:09:40.542Z,93.87
2017-05-28T04:09:53.452Z,93.77
2017-05-28T04:10:06.410Z,93.87
2017-05-28T04:10:19.372Z,93.87
2017-05-28T04:10:32.777Z,93.87
2017-05-28T04:10:46.211Z,93.87
2017-05-28T04:10:59.642Z,93.87
2017-05-28T04:11:13.014Z,94.06
2017-05-28T04:11:26.489Z,93.87
2017-05-28T04:11:39.350Z,94.06
2017-05-28T04:11:52.850Z,94.06
2017-05-28T04:12:05.760Z,94.06
2017-05-28T04:12:19.241Z,94.06
2017-05-28T04:12:32.709Z,93.77
2017-05-28T04:12:46.461Z,93.87
2017-05-28T04:13:08.125Z,93.87
2017-05-28T04:13:20.560Z,93.96
2017-05-28T04:13:33.141Z,93.87
2017-05-28T04:13:46.674Z,93.77
2017-05-28T04:14:03.138Z,93.96
2017-05-28T04:14:16.310Z,94.06
2017-05-28T04:14:31.759Z,93.87
2017-05-28T04:14:55.500Z,93.77
2017-05-28T04:15:09.041Z,93.77
2017-05-28T04:15:21.983Z,94.06
2017-05-28T04:15:35.517Z,93.96
2017-05-28T04:15:48.425Z,93.96
2017-05-28T04:16:01.798Z,94.06
2017-05-28T04:16:15.183Z,94.16
2017-05-28T04:16:28.106Z,93.68
2017-05-28T04:16:40.998Z,93.77
2017-05-28T04:16:58.226Z,93.96
2017-05-28T04:17:13.861Z,94.06
2017-05-28T04:18:08.763Z,93.29
2017-05-28T04:18:21.089Z,93.29
2017-05-28T04:18:34.459Z,93.39
2017-05-28T04:18:47.324Z,93.29
2017-05-28T04:19:00.259Z,93.49
2017-05-28T04:19:13.719Z,93.87
2017-05-28T04:19:27.190Z,94.06
2017-05-28T04:19:40.582Z,93.87
2017-05-28T04:19:54.029Z,94.26
2017-05-28T04:20:07.468Z,93.49
2017-05-28T04:20:20.363Z,93.68
2017-05-28T04:20:33.778Z,93.49
2017-05-28T04:20:46.136Z,94.26
2017-05-28T04:20:59.555Z,94.16
2017-05-28T04:21:13.021Z,94.16
2017-05-28T04:21:26.408Z,94.06
2017-05-28T04:21:39.737Z,94.16
2017-05-28T04:21:53.153Z,94.16
2017-05-28T04:22:06.082Z,94.26
2017-05-28T04:22:18.469Z,93.58
2017-05-28T04:22:31.879Z,93.49
2017-05-28T04:22:45.379Z,94.26
2017-05-28T04:22:57.737Z,93.49
2017-05-28T04:23:10.154Z,93.77
2017-05-28T04:23:23.598Z,94.06
2017-05-28T04:23:37.060Z,94.06
2017-05-28T04:23:49.973Z,93.49
2017-05-28T04:24:03.349Z,93.29
2017-05-28T04:24:16.286Z,93.39
2017-05-28T04:24:28.674Z,93.19
2017-05-28T04:24:41.526Z,93.49
2017-05-28T04:24:54.938Z,93.58
2017-05-28T04:25:07.302Z,93.68
2017-05-28T04:25:20.287Z,93.49
2017-05-28T04:25:32.661Z,93.58
2017-05-28T04:25:45.073Z,93.39
2017-05-28T04:25:57.484Z,93.49
2017-05-28T04:26:09.887Z,93.68
2017-05-28T04:26:23.257Z,93.87
2017-05-28T04:26:36.697Z,93.58
2017-05-28T04:26:50.155Z,93.58
2017-05-28T04:27:03.505Z,94.06
2017-05-28T04:27:17.032Z,93.58
2017-05-28T04:27:30.493Z,93.49
2017-05-28T04:27:43.902Z,93.39
2017-05-28T04:27:56.773Z,93.39
2017-05-28T04:28:09.211Z,93.39
2017-05-28T04:28:21.574Z,93.39
2017-05-28T04:28:34.581Z,93.39
2017-05-28T04:28:48.090Z,93.58
2017-05-28T04:28:59.394Z,93.29
2017-05-28T04:29:12.396Z,93.1
2017-05-28T04:29:25.340Z,93.1
2017-05-28T04:29:38.744Z,93.29
2017-05-28T04:29:52.219Z,93.1
2017-05-28T04:30:05.085Z,93.49
2017-05-28T04:30:17.405Z,93.29
2017-05-28T04:30:30.886Z,93.29
2017-05-28T04:30:43.724Z,93.39
2017-05-28T04:30:57.738Z,93.29
2017-05-28T04:31:11.125Z,93.39
2017-05-28T04:31:24.087Z,92.91
2017-05-28T04:31:36.428Z,93.58
2017-05-28T04:31:49.796Z,93.39
2017-05-28T04:32:03.164Z,93.29
2017-05-28T04:32:16.629Z,93.58
2017-05-28T04:32:30.098Z,93.49
2017-05-28T04:32:43.523Z,93.1
2017-05-28T04:32:56.421Z,93.1
2017-05-28T04:33:09.326Z,93.1
2017-05-28T04:33:22.214Z,93.29
2017-05-28T04:33:35.125Z,93.49
2017-05-28T04:33:48.540Z,93.39
2017-05-28T04:34:01.970Z,93.29
2017-05-28T04:34:14.307Z,93.19
2017-05-28T04:34:27.281Z,93.68
2017-05-28T04:34:40.638Z,93.49
2017-05-28T04:34:54.102Z,93.19
2017-05-28T04:35:07.521Z,93.49
2017-05-28T04:35:20.454Z,93.29
2017-05-28T04:35:33.927Z,92.81
2017-05-28T04:35:47.365Z,93.1
2017-05-28T04:36:00.712Z,92.91
2017-05-28T04:36:14.132Z,92.81
2017-05-28T04:36:27.517Z,92.72
2017-05-28T04:36:40.459Z,93.01
2017-05-28T04:36:53.360Z,93.01
2017-05-28T04:37:06.319Z,93.29
2017-05-28T04:37:19.199Z,93.1
2017-05-28T04:37:32.638Z,93.1
2017-05-28T04:37:46.062Z,93.19
2017-05-28T04:37:59.563Z,92.72
2017-05-28T04:38:12.933Z,93.19
2017-05-28T04:38:26.338Z,92.81
2017-05-28T04:38:39.803Z,92.81
2017-05-28T04:38:52.779Z,92.91
2017-05-28T04:39:05.685Z,92.91
2017-05-28T04:39:18.499Z,93.01
2017-05-28T04:39:31.928Z,92.91
2017-05-28T04:39:45.312Z,93.19
2017-05-28T04:39:58.234Z,93.29
2017-05-28T04:40:11.146Z,93.58
2017-05-28T04:40:24.576Z,93.29
2017-05-28T04:40:37.957Z,93.29
2017-05-28T04:40:50.770Z,93.29
2017-05-28T04:41:03.617Z,93.29
2017-05-28T04:41:17.008Z,93.49
2017-05-28T04:41:29.925Z,93.49
2017-05-28T04:41:42.851Z,93.19
2017-05-28T04:41:56.391Z,93.19
2017-05-28T04:42:09.233Z,93.39
2017-05-28T04:42:22.609Z,93.39
2017-05-28T04:42:35.460Z,93.39
2017-05-28T04:42:48.338Z,93.29
2017-05-28T04:43:01.665Z,93.29
2017-05-28T04:43:14.590Z,93.39
2017-05-28T04:43:26.976Z,93.49
2017-05-28T04:43:40.379Z,93.39
2017-05-28T04:43:53.867Z,93.49
2017-05-28T04:44:07.293Z,93.39
2017-05-28T04:44:20.692Z,93.49
2017-05-28T04:44:34.097Z,93.1
2017-05-28T04:44:46.492Z,93.29
2017-05-28T04:44:59.492Z,93.58
2017-05-28T04:45:12.417Z,93.29
2017-05-28T04:45:25.871Z,92.91
2017-05-28T04:45:39.466Z,93.29
2017-05-28T04:45:52.901Z,92.91
2017-05-28T04:46:06.287Z,93.29
2017-05-28T04:46:19.693Z,93.29
2017-05-28T04:46:32.523Z,93.29
2017-05-28T04:46:45.889Z,93.58
2017-05-28T04:46:59.312Z,93.39
2017-05-28T04:47:12.197Z,93.39
2017-05-28T04:47:25.127Z,93.15
2017-05-28T04:47:38.033Z,93.49
2017-05-28T04:47:51.525Z,94.26
2017-05-28T04:48:04.953Z,94.06
2017-05-28T04:48:17.858Z,93.87
2017-05-28T04:48:31.306Z,93.58
2017-05-28T04:48:44.765Z,93.49
2017-05-28T04:48:57.166Z,93.39
2017-05-28T04:49:09.073Z,93.58
2017-05-28T04:49:21.932Z,94.16
2017-05-28T04:49:35.362Z,94.06
2017-05-28T04:49:47.677Z,93.96
2017-05-28T04:50:01.075Z,93.77
2017-05-28T04:50:14.542Z,94.06
2017-05-28T04:50:27.382Z,93.96
2017-05-28T04:50:40.797Z,93.87
2017-05-28T04:50:54.118Z,94.16
2017-05-28T04:51:06.502Z,93.87
2017-05-28T04:51:19.924Z,93.96
2017-05-28T04:51:33.405Z,93.77
2017-05-28T04:51:46.836Z,93.96
2017-05-28T04:51:59.675Z,94.16
2017-05-28T04:52:13.065Z,93.87
2017-05-28T04:52:26.455Z,93.87
2017-05-28T04:52:39.898Z,93.58
2017-05-28T04:52:52.840Z,93.91
2017-05-28T04:53:05.758Z,93.96
2017-05-28T04:53:18.095Z,93.96
2017-05-28T04:53:31.590Z,93.77
2017-05-28T04:53:44.482Z,93.87
2017-05-28T04:53:58.023Z,94.06
2017-05-28T04:54:11.466Z,94.06
2017-05-28T04:54:24.310Z,93.87
2017-05-28T04:54:37.244Z,93.96
2017-05-28T04:54:50.629Z,94.06
2017-05-28T04:55:03.455Z,94.06
2017-05-28T04:55:16.893Z,93.87
2017-05-28T04:55:29.308Z,94.26
2017-05-28T04:55:42.770Z,93.96
2017-05-28T04:55:56.247Z,93.96
2017-05-28T04:56:09.670Z,93.87
2017-05-28T04:56:22.061Z,93.87
2017-05-28T04:56:35.028Z,93.87
2017-05-28T04:56:48.485Z,94.26
2017-05-28T04:57:01.336Z,94.16
2017-05-28T04:57:14.801Z,94.06
2017-05-28T04:57:28.155Z,93.49
2017-05-28T04:57:41.608Z,93.68
2017-05-28T04:57:55.069Z,93.58
2017-05-28T04:58:08.485Z,93.49
2017-05-28T04:58:21.865Z,93.49
2017-05-28T04:58:35.293Z,94.16
2017-05-28T04:58:48.331Z,94.26
2017-05-28T04:59:01.874Z,94.26
2017-05-28T04:59:14.808Z,93.87
2017-05-28T04:59:27.793Z,94.26
2017-05-28T04:59:40.203Z,94.26
2017-05-28T04:59:53.119Z,94.06
2017-05-28T05:00:06.539Z,94.16
2017-05-28T05:00:18.916Z,94.06
2017-05-28T05:00:31.259Z,93.49
2017-05-28T05:00:44.272Z,93.87
2017-05-28T05:00:57.109Z,94.16
2017-05-28T05:01:10.061Z,94.06
2017-05-28T05:01:23.464Z,94.26
2017-05-28T05:01:36.946Z,93.49
2017-05-28T05:01:50.407Z,93.49
2017-05-28T05:02:03.743Z,93.58
2017-05-28T05:02:17.144Z,93.49
2017-05-28T05:02:30.052Z,93.49
2017-05-28T05:02:43.452Z,93.39
2017-05-28T05:02:57.000Z,93.39
2017-05-28T05:03:10.404Z,93.58
2017-05-28T05:03:23.835Z,93.58
2017-05-28T05:03:36.756Z,93.39
2017-05-28T05:03:50.188Z,93.1
2017-05-28T05:04:03.682Z,93.39
2017-05-28T05:04:16.112Z,93.49
2017-05-28T05:04:29.478Z,93.39
2017-05-28T05:04:42.384Z,93.39
2017-05-28T05:04:55.801Z,93.29
2017-05-28T05:05:08.718Z,93.49
2017-05-28T05:05:22.101Z,93.39
2017-05-28T05:05:34.978Z,93.39
2017-05-28T05:05:48.434Z,93.58
2017-05-28T05:06:00.808Z,93.29
2017-05-28T05:06:14.237Z,93.19
2017-05-28T05:06:27.139Z,93.39
2017-05-28T05:06:40.585Z,93.19
2017-05-28T05:06:54.025Z,93.39
2017-05-28T05:07:06.827Z,93.49
2017-05-28T05:07:20.190Z,93.39
2017-05-28T05:07:33.727Z,93.49
2017-05-28T05:07:47.125Z,93.29
2017-05-28T05:08:00.681Z,93.19
2017-05-28T05:08:14.133Z,93.1
2017-05-28T05:08:27.053Z,93.49
2017-05-28T05:08:40.533Z,93.29
2017-05-28T05:08:53.461Z,93.39
2017-05-28T05:09:06.910Z,93.39
2017-05-28T05:09:19.317Z,93.29
2017-05-28T05:09:32.873Z,93.68
2017-05-28T05:09:45.289Z,93.39
2017-05-28T05:09:58.776Z,93.49
2017-05-28T05:10:11.678Z,93.29
2017-05-28T05:10:25.013Z,93.19
2017-05-28T05:10:37.943Z,93.49
2017-05-28T05:10:51.435Z,93.29
2017-05-28T05:11:04.316Z,93.29
2017-05-28T05:11:17.702Z,93.58
2017-05-28T05:11:31.091Z,93.49
2017-05-28T05:11:44.511Z,93.29
2017-05-28T05:11:57.850Z,93.29
2017-05-28T05:12:10.260Z,92.81
2017-05-28T05:12:23.133Z,92.81
2017-05-28T05:12:36.569Z,92.91
2017-05-28T05:12:49.507Z,93.1
2017-05-28T05:13:02.934Z,92.81
2017-05-28T05:13:16.378Z,92.91
2017-05-28T05:13:28.321Z,92.91
2017-05-28T05:13:41.769Z,92.91
2017-05-28T05:13:55.340Z,92.91
2017-05-28T05:14:08.330Z,93.01
2017-05-28T05:14:21.798Z,92.91
2017-05-28T05:14:34.762Z,93.01
2017-05-28T05:14:47.185Z,93.1
2017-05-28T05:15:00.527Z,92.91
2017-05-28T05:15:13.955Z,92.91
2017-05-28T05:15:25.834Z,93.1
2017-05-28T05:15:39.204Z,93.1
2017-05-28T05:15:52.131Z,93.01
2017-05-28T05:16:05.595Z,93.01
2017-05-28T05:16:18.976Z,92.72
2017-05-28T05:16:32.436Z,92.81
2017-05-28T05:16:45.316Z,92.72
2017-05-28T05:16:58.753Z,93.1
2017-05-28T05:17:11.655Z,93.01
2017-05-28T05:17:24.058Z,93.1
2017-05-28T05:17:36.939Z,93.01
2017-05-28T05:17:50.362Z,93.1
2017-05-28T05:18:03.766Z,93.1
2017-05-28T05:18:16.660Z,93.1
2017-05-28T05:18:30.148Z,92.81
2017-05-28T05:18:43.090Z,93.01
2017-05-28T05:18:56.487Z,92.91
2017-05-28T05:19:09.430Z,93.1
2017-05-28T05:19:22.289Z,92.72
2017-05-28T05:19:35.667Z,93.1
2017-05-28T05:19:49.067Z,92.81
2017-05-28T05:20:02.002Z,93.39
2017-05-28T05:20:14.844Z,92.91
2017-05-28T05:20:27.734Z,93.01
2017-05-28T05:20:41.171Z,92.81
2017-05-28T05:20:54.581Z,93.19
2017-05-28T05:21:08.022Z,93.1
2017-05-28T05:21:20.874Z,92.81
2017-05-28T05:21:33.880Z,92.72
2017-05-28T05:21:47.284Z,92.81
2017-05-28T05:22:00.729Z,93.1
2017-05-28T05:22:14.152Z,93.1
2017-05-28T05:22:27.087Z,93.1
2017-05-28T05:22:39.543Z,93.1
2017-05-28T05:22:52.945Z,92.52
2017-05-28T05:23:06.334Z,93.1
2017-05-28T05:23:18.769Z,92.81
2017-05-28T05:23:32.237Z,92.62
2017-05-28T05:23:45.154Z,92.91
2017-05-28T05:23:58.104Z,93.01
2017-05-28T05:24:11.533Z,93.19
2017-05-28T05:24:24.926Z,93.29
2017-05-28T05:24:37.800Z,92.72
2017-05-28T05:24:50.689Z,93.39
2017-05-28T05:25:03.099Z,92.57
2017-05-28T05:25:15.515Z,92.91
2017-05-28T05:25:28.456Z,92.72
2017-05-28T05:25:41.969Z,92.62
2017-05-28T05:25:55.457Z,92.62
2017-05-28T05:26:08.839Z,92.91
2017-05-28T05:26:21.702Z,92.72
2017-05-28T05:26:34.634Z,92.72
2017-05-28T05:26:48.132Z,92.52
2017-05-28T05:27:00.487Z,92.62
2017-05-28T05:27:13.953Z,92.86
2017-05-28T05:27:27.389Z,92.96
2017-05-28T05:27:40.786Z,93.01
2017-05-28T05:27:54.352Z,92.81
2017-05-28T05:28:07.832Z,92.86
2017-05-28T05:28:21.298Z,92.62
2017-05-28T05:28:33.726Z,92.72
2017-05-28T05:28:47.138Z,92.57
2017-05-28T05:28:59.660Z,92.72
2017-05-28T05:29:12.606Z,92.67
2017-05-28T05:29:25.017Z,92.67
2017-05-28T05:29:37.890Z,92.57
2017-05-28T05:29:51.285Z,92.57
2017-05-28T05:30:04.190Z,92.62
2017-05-28T05:30:17.651Z,92.48
2017-05-28T05:30:31.139Z,92.57
2017-05-28T05:30:44.065Z,92.62
2017-05-28T05:30:57.000Z,92.67
2017-05-28T05:31:09.924Z,92.62
2017-05-28T05:31:23.411Z,92.57
2017-05-28T05:31:36.971Z,92.72
2017-05-28T05:31:50.490Z,92.67
2017-05-28T05:32:03.938Z,92.72
2017-05-28T05:32:16.847Z,92.48
2017-05-28T05:32:29.784Z,92.57
2017-05-28T05:32:42.619Z,92.57
2017-05-28T05:32:56.111Z,92.62
2017-05-28T05:33:08.970Z,92.67
2017-05-28T05:33:21.911Z,92.67
2017-05-28T05:33:34.833Z,92.57
2017-05-28T05:33:48.248Z,92.57
2017-05-28T05:34:01.140Z,92.57
2017-05-28T05:34:14.546Z,92.57
2017-05-28T05:34:27.973Z,92.86
2017-05-28T05:34:39.906Z,92.77
2017-05-28T05:34:53.310Z,92.96
2017-05-28T05:35:06.269Z,92.86
2017-05-28T05:35:18.676Z,92.48
2017-05-28T05:35:32.106Z,92.86
2017-05-28T05:35:45.519Z,92.57
2017-05-28T05:35:57.937Z,93.1
2017-05-28T05:36:11.412Z,92.86
2017-05-28T05:36:24.822Z,93.01
2017-05-28T05:36:37.724Z,92.57
2017-05-28T05:36:51.100Z,92.96
2017-05-28T05:37:04.555Z,92.48
2017-05-28T05:37:17.477Z,92.77
2017-05-28T05:37:30.953Z,92.81
2017-05-28T05:37:43.933Z,92.72
2017-05-28T05:37:56.897Z,92.96
2017-05-28T05:38:09.806Z,93.39
2017-05-28T05:38:23.220Z,92.81
2017-05-28T05:38:36.565Z,92.86
2017-05-28T05:38:50.003Z,92.67
2017-05-28T05:39:02.990Z,92.62
2017-05-28T05:39:16.455Z,92.57
2017-05-28T05:39:29.912Z,92.57
2017-05-28T05:39:43.500Z,92.57
2017-05-28T05:39:56.916Z,92.57
2017-05-28T05:40:09.228Z,92.57
2017-05-28T05:40:22.632Z,92.86
2017-05-28T05:40:36.017Z,92.72
2017-05-28T05:40:49.439Z,92.67
2017-05-28T05:41:02.323Z,92.57
2017-05-28T05:41:15.832Z,92.57
2017-05-28T05:41:29.278Z,92.48
2017-05-28T05:41:42.709Z,92.67
2017-05-28T05:41:55.601Z,92.67
2017-05-28T05:42:08.593Z,92.67
2017-05-28T05:42:20.465Z,92.77
2017-05-28T05:42:33.887Z,92.77
2017-05-28T05:42:47.463Z,92.96
2017-05-28T05:43:00.876Z,92.77
2017-05-28T05:43:13.745Z,92.96
2017-05-28T05:43:27.168Z,92.86
2017-05-28T05:43:40.544Z,92.48
2017-05-28T05:43:53.887Z,93.05
2017-05-28T05:44:06.868Z,92.86
2017-05-28T05:44:20.268Z,92.57
2017-05-28T05:44:33.708Z,92.86
2017-05-28T05:44:47.177Z,92.48
2017-05-28T05:45:00.651Z,92.19
2017-05-28T05:45:14.007Z,92.29
2017-05-28T05:45:27.386Z,92.29
2017-05-28T05:45:40.813Z,92.57
2017-05-28T05:45:54.193Z,92.67
2017-05-28T05:46:06.529Z,92.67
2017-05-28T05:46:18.844Z,92.38
2017-05-28T05:46:31.726Z,92.57
2017-05-28T05:46:44.663Z,92.57
2017-05-28T05:46:58.062Z,92.19
2017-05-28T05:47:10.381Z,92.57
2017-05-28T05:47:23.354Z,92.48
2017-05-28T05:47:36.869Z,92.38
2017-05-28T05:47:49.737Z,92.38
2017-05-28T05:48:02.696Z,92.29
2017-05-28T05:48:16.068Z,92.38
2017-05-28T05:48:29.488Z,92.57
2017-05-28T05:48:42.912Z,92.48
2017-05-28T05:48:56.411Z,92.48
2017-05-28T05:49:09.861Z,92.29
2017-05-28T05:49:22.814Z,92.38
2017-05-28T05:49:36.269Z,92.1
2017-05-28T05:49:49.145Z,91.9
2017-05-28T05:50:02.610Z,92.38
2017-05-28T05:50:16.051Z,92.29
2017-05-28T05:50:28.879Z,91.81
2017-05-28T05:50:42.302Z,92
2017-05-28T05:50:54.650Z,92.38
2017-05-28T05:51:07.103Z,92.29
2017-05-28T05:51:20.067Z,91.9